Date,TemperatureHighF,TemperatureAvgF,TemperatureLowF,DewpointHighF,DewpointAvgF,DewpointLowF,HumidityHigh,HumidityAvg,HumidityLow,PressureMaxIn,PressureMinIn,WindSpeedMaxMPH,WindSpeedAvgMPH,GustSpeedMaxMPH,PrecipitationSumIn
2013-2-7,48,46,45,43,40,37,89,82,66,29.23,29.04,3,0,3,0.00
2013-2-8,53,48,39,49,43,33,89,84,73,29.26,29.03,3,0,3,0.00
2013-2-9,63,45,33,37,33,29,85,66,37,29.39,29.24,0,0,0,0.00
2013-2-10,61,50,43,49,41,32,90,71,58,29.40,29.16,0,0,0,0.00
2013-2-11,59,54,49,56,51,46,92,91,90,29.23,29.13,0,0,0,0.00
2013-2-12,52,48,45,46,44,42,92,87,76,29.21,28.95,0,0,0,0.00
2013-2-13,52,46,40,49,42,34,92,86,77,29.06,28.85,6,0,6,0.00
2013-2-14,57,45,38,39,35,33,81,69,49,29.18,29.05,7,0,7,0.20
2013-2-15,62,47,35,43,36,31,88,68,44,29.22,29.08,6,0,6,0.00
2013-2-16,44,39,31,34,25,15,72,57,39,29.23,29.05,11,1,11,0.00
2013-2-17,48,36,26,22,18,15,62,50,32,29.38,29.23,8,0,8,0.00
2013-2-18,60,44,30,32,26,21,72,53,35,29.44,29.22,7,0,7,0.00
2013-2-19,58,47,41,47,33,22,87,61,39,29.24,29.11,11,1,11,0.00
2013-2-20,52,42,33,23,19,14,56,40,28,29.29,29.18,7,0,7,0.00
2013-2-21,66,49,34,40,26,17,65,41,28,29.27,29.05,5,0,5,0.00
2013-2-22,51,43,42,40,39,38,89,86,65,29.26,29.13,6,0,6,0.00
2013-2-23,50,46,41,47,43,38,91,90,88,29.15,28.94,4,0,4,0.00
2013-2-24,64,50,40,45,39,34,91,70,38,29.14,29.00,4,0,4,0.00
2013-2-25,49,45,41,37,35,32,85,68,56,29.14,28.95,9,0,9,0.00
2013-2-26,53,43,37,49,39,34,91,86,75,28.96,28.67,8,0,8,0.00
2013-2-27,61,49,42,41,36,34,75,62,42,29.00,28.88,11,0,11,0.00
2013-2-28,50,43,38,35,30,26,73,61,48,29.09,28.95,10,1,11,0.00